Time;durP1;ratioP1;P1;durP2;ratioP2;P2;SDS_P1;SDS_P2;PMS_P1;PMS_P2;Temp;Humidity;BMP_temperature;BMP_pressure;BME280_temperature;BME280_humidity;BME280_pressure;Samples;Min_cycle;Max_cycle;Signal;HPM_P1;HPM_P2
2021/11/25 00:00:23;;;;;;;5.75;2.95;;;9.00;91.30;;;;;;5050162;28;20402;-68
2021/11/25 00:02:49;;;;;;;5.22;2.53;;;8.90;91.00;;;;;;5050616;28;20047;-70
2021/11/25 00:05:15;;;;;;;4.57;2.55;;;8.90;91.10;;;;;;5050345;28;20041;-70
2021/11/25 00:07:41;;;;;;;4.90;2.78;;;8.90;91.00;;;;;;5050100;28;20029;-69
2021/11/25 00:10:09;;;;;;;6.07;3.40;;;8.90;90.40;;;;;;5050051;28;20157;-70
2021/11/25 00:12:35;;;;;;;9.63;3.85;;;8.90;90.50;;;;;;5050017;28;20037;-71
2021/11/25 00:15:01;;;;;;;4.07;2.40;;;8.90;90.20;;;;;;5050106;28;20056;-70
2021/11/25 00:17:26;;;;;;;5.38;2.30;;;8.90;90.50;;;;;;5050421;28;20052;-70
2021/11/25 00:19:52;;;;;;;4.50;3.13;;;8.80;90.90;;;;;;5049992;28;20540;-70
2021/11/25 00:22:18;;;;;;;4.80;3.10;;;8.80;90.90;;;;;;5050082;28;20029;-70
2021/11/25 00:24:44;;;;;;;5.47;2.85;;;8.90;90.70;;;;;;5049976;28;20102;-69
2021/11/25 00:27:09;;;;;;;4.85;2.60;;;8.80;91.00;;;;;;5049813;28;20118;-70
2021/11/25 00:29:35;;;;;;;6.78;2.42;;;8.80;90.80;;;;;;5050117;28;20025;-70
2021/11/25 00:32:01;;;;;;;7.68;3.45;;;8.90;91.00;;;;;;5049809;28;20043;-69
2021/11/25 00:34:26;;;;;;;4.60;2.45;;;8.90;90.90;;;;;;5049860;28;20038;-70
2021/11/25 00:36:52;;;;;;;5.63;3.17;;;8.80;91.10;;;;;;5049828;28;20253;-70
2021/11/25 00:39:18;;;;;;;8.40;3.30;;;8.90;90.80;;;;;;5049737;28;20482;-71
2021/11/25 00:41:46;;;;;;;6.65;3.35;;;8.90;90.60;;;;;;5049994;28;20061;-70
2021/11/25 00:44:12;;;;;;;6.80;3.20;;;8.90;91.10;;;;;;5049646;28;20474;-70
2021/11/25 00:46:38;;;;;;;9.73;4.63;;;8.90;90.90;;;;;;5049741;28;20029;-70
2021/11/25 00:49:04;;;;;;;5.35;3.22;;;8.90;90.60;;;;;;5048567;28;20040;-70
2021/11/25 00:51:30;;;;;;;8.23;4.05;;;8.90;90.80;;;;;;5048330;28;20036;-70
2021/11/25 00:53:56;;;;;;;7.38;4.00;;;8.90;90.40;;;;;;5049559;28;20371;-70
2021/11/25 00:56:21;;;;;;;5.28;2.47;;;8.90;90.30;;;;;;5050015;28;20056;-69
2021/11/25 00:58:47;;;;;;;7.57;2.65;;;8.80;90.90;;;;;;5049314;28;20077;-69
2021/11/25 01:01:13;;;;;;;6.88;2.50;;;8.90;90.90;;;;;;5048746;28;20060;-71
2021/11/25 01:03:39;;;;;;;4.15;2.65;;;8.90;91.20;;;;;;5052691;28;20029;-69
2021/11/25 01:06:06;;;;;;;4.20;2.58;;;8.90;91.40;;;;;;5053176;28;20017;-68
2021/11/25 01:08:32;;;;;;;7.32;2.40;;;8.90;91.60;;;;;;5053554;28;20354;-70
2021/11/25 01:10:57;;;;;;;8.93;2.78;;;8.90;91.50;;;;;;5053084;28;20029;-70
2021/11/25 01:13:23;;;;;;;3.95;2.58;;;8.80;91.40;;;;;;5052720;28;20033;-69
2021/11/25 01:15:49;;;;;;;6.68;2.65;;;8.80;91.40;;;;;;5053040;28;20040;-71
2021/11/25 01:18:17;;;;;;;5.43;2.33;;;8.80;91.30;;;;;;5053171;28;20064;-70
2021/11/25 01:20:44;;;;;;;9.27;2.75;;;8.80;91.40;;;;;;5053174;28;20037;-68
2021/11/25 01:23:14;;;;;;;4.53;2.67;;;8.70;91.80;;;;;;5053078;28;20170;-69
2021/11/25 01:25:40;;;;;;;5.18;3.22;;;8.80;91.90;;;;;;5052778;28;20052;-70
2021/11/25 01:28:12;;;;;;;4.85;2.90;;;8.70;91.90;;;;;;5052683;28;20107;-70
2021/11/25 01:30:48;;;;;;;9.45;3.65;;;8.70;91.70;;;;;;5052668;28;20052;-69
2021/11/25 01:33:14;;;;;;;5.03;2.80;;;8.70;91.70;;;;;;5052638;28;20458;-70
2021/11/25 01:35:40;;;;;;;8.55;3.95;;;8.70;91.30;;;;;;5053164;28;20033;-70
2021/11/25 01:38:07;;;;;;;6.85;3.88;;;8.80;91.00;;;;;;5052515;28;20370;-70
2021/11/25 01:40:34;;;;;;;5.30;3.40;;;8.90;91.20;;;;;;5052657;28;20040;-69
2021/11/25 01:43:00;;;;;;;6.78;3.88;;;8.80;91.40;;;;;;5052551;28;20091;-70
2021/11/25 01:45:27;;;;;;;7.30;3.35;;;8.80;91.20;;;;;;5052563;28;20039;-70
2021/11/25 01:47:54;;;;;;;6.13;3.22;;;8.90;90.90;;;;;;5052523;28;20036;-70
2021/11/25 01:50:21;;;;;;;7.63;3.47;;;8.90;91.40;;;;;;5052774;28;20127;-69
2021/11/25 01:52:48;;;;;;;6.90;3.70;;;8.80;91.40;;;;;;5052164;28;20126;-70
2021/11/25 01:55:15;;;;;;;8.02;3.97;;;8.80;91.00;;;;;;5052299;28;20358;-71
2021/11/25 01:57:42;;;;;;;7.30;4.05;;;8.80;90.90;;;;;;5052098;28;20151;-70
2021/11/25 02:00:14;;;;;;;5.07;3.28;;;8.80;91.30;;;;;;5052398;28;20017;-71
2021/11/25 02:02:40;;;;;;;8.73;4.35;;;8.80;91.60;;;;;;5052498;28;20278;-71
2021/11/25 02:05:06;;;;;;;7.95;4.13;;;8.90;91.00;;;;;;5051972;28;20033;-70
2021/11/25 02:07:32;;;;;;;14.25;4.63;;;8.90;90.70;;;;;;5052034;28;20029;-71
2021/11/25 02:09:58;;;;;;;5.90;3.30;;;8.90;90.40;;;;;;5052245;28;20056;-71
2021/11/25 02:12:24;;;;;;;7.07;3.25;;;8.90;90.20;;;;;;5051851;28;20095;-72
2021/11/25 02:14:50;;;;;;;5.95;3.40;;;8.90;90.20;;;;;;5051246;28;20425;-70
2021/11/25 02:17:17;;;;;;;7.07;3.35;;;8.90;90.60;;;;;;5052275;28;20025;-70
2021/11/25 02:19:43;;;;;;;8.02;3.95;;;8.80;90.60;;;;;;5051652;28;20522;-70
2021/11/25 02:22:09;;;;;;;7.03;4.07;;;8.80;90.90;;;;;;5050503;28;20025;-70
2021/11/25 02:24:35;;;;;;;8.20;4.22;;;8.70;90.80;;;;;;5051798;28;20055;-70
2021/11/25 02:27:01;;;;;;;9.30;4.85;;;8.70;91.10;;;;;;5051650;28;20343;-70
2021/11/25 02:29:27;;;;;;;7.70;3.92;;;8.70;91.00;;;;;;5051673;28;20100;-71
2021/11/25 02:31:53;;;;;;;7.50;4.38;;;8.70;90.90;;;;;;5051341;28;20121;-70
2021/11/25 02:34:18;;;;;;;6.97;3.22;;;8.80;91.20;;;;;;5051544;28;20071;-71
2021/11/25 02:36:44;;;;;;;8.68;4.50;;;8.70;91.40;;;;;;5067441;28;20036;-70
2021/11/25 02:39:10;;;;;;;8.50;4.22;;;8.70;91.10;;;;;;5071362;28;20094;-70
2021/11/25 02:41:36;;;;;;;5.85;3.42;;;8.70;91.10;;;;;;5071638;28;20025;-70
2021/11/25 02:44:02;;;;;;;8.43;4.20;;;8.70;91.30;;;;;;5071366;28;20067;-70
2021/11/25 02:46:27;;;;;;;4.82;3.35;;;8.70;91.60;;;;;;5071320;28;20060;-70
2021/11/25 02:48:55;;;;;;;7.68;4.38;;;8.70;91.70;;;;;;5071229;28;20124;-70
2021/11/25 02:51:23;;;;;;;;;;;8.80;91.60;;;;;;5071511;28;20024;-71
2021/11/25 02:53:49;;;;;;;4.95;3.40;;;8.70;91.90;;;;;;5071469;28;19955;-71
2021/11/25 02:56:21;;;;;;;8.48;4.32;;;8.80;92.10;;;;;;5071165;28;20044;-71
2021/11/25 02:58:48;;;;;;;7.72;4.18;;;8.70;92.20;;;;;;5070766;28;20040;-70
2021/11/25 03:01:16;;;;;;;6.85;4.07;;;8.70;92.00;;;;;;5069783;28;20032;-71
2021/11/25 03:03:42;;;;;;;8.55;3.67;;;8.70;91.80;;;;;;5071089;28;20029;-70
2021/11/25 03:06:08;;;;;;;6.97;3.85;;;8.70;92.10;;;;;;5070973;28;20085;-70
2021/11/25 03:08:34;;;;;;;9.07;4.38;;;8.70;92.20;;;;;;5069418;28;20088;-70
2021/11/25 03:11:09;;;;;;;8.63;4.47;;;8.70;92.20;;;;;;5069398;28;20033;-70
2021/11/25 03:13:39;;;;;;;10.35;4.72;;;8.60;92.30;;;;;;5070714;28;20241;-70
2021/11/25 03:16:06;;;;;;;9.20;4.63;;;8.70;92.10;;;;;;5070700;28;20056;-70
2021/11/25 03:18:32;;;;;;;8.75;4.65;;;8.70;92.00;;;;;;5071052;28;20039;-70
2021/11/25 03:20:58;;;;;;;11.00;4.65;;;8.70;92.00;;;;;;5070679;28;20036;-70
2021/11/25 03:23:28;;;;;;;6.90;3.83;;;8.70;91.90;;;;;;5071354;28;20075;-71
2021/11/25 03:25:55;;;;;;;9.23;4.85;;;8.60;92.20;;;;;;5069645;28;20029;-70
2021/11/25 03:28:21;;;;;;;8.23;4.72;;;8.60;92.10;;;;;;5070616;28;20050;-69
2021/11/25 03:30:55;;;;;;;9.38;4.53;;;8.70;92.00;;;;;;5070466;28;20045;-70
2021/11/25 03:33:31;;;;;;;11.00;4.50;;;8.70;91.80;;;;;;5070698;28;20043;-71
2021/11/25 03:35:59;;;;;;;11.55;4.63;;;8.70;92.30;;;;;;5070432;28;20110;-71
2021/11/25 03:38:25;;;;;;;7.47;4.95;;;8.60;92.30;;;;;;5070823;28;20035;-71
2021/11/25 03:40:51;;;;;;;8.52;4.40;;;8.60;92.20;;;;;;5070323;28;20029;-71
2021/11/25 03:43:17;;;;;;;8.80;4.82;;;8.60;92.10;;;;;;5070426;28;20432;-71
2021/11/25 03:45:43;;;;;;;9.88;4.68;;;8.60;92.00;;;;;;5070469;28;20477;-70
2021/11/25 03:48:10;;;;;;;9.38;4.80;;;8.60;92.00;;;;;;5070307;28;20056;-70
2021/11/25 03:50:36;;;;;;;10.63;4.82;;;8.60;91.90;;;;;;5070716;28;20021;-69
2021/11/25 03:53:03;;;;;;;8.93;4.90;;;8.70;92.00;;;;;;5070150;28;20029;-69
2021/11/25 03:55:29;;;;;;;8.48;4.15;;;8.70;91.90;;;;;;5070121;28;20047;-70
2021/11/25 03:57:54;;;;;;;9.35;4.88;;;8.70;91.90;;;;;;5070078;28;20037;-70
2021/11/25 04:00:21;;;;;;;10.55;5.30;;;8.60;91.80;;;;;;5070019;28;20412;-70
2021/11/25 04:02:49;;;;;;;8.20;4.60;;;8.70;91.80;;;;;;5070481;28;20021;-70
2021/11/25 04:05:16;;;;;;;9.07;4.68;;;8.70;91.70;;;;;;5070287;28;20445;-70
2021/11/25 04:07:42;;;;;;;7.63;4.85;;;8.70;91.70;;;;;;5070000;28;20462;-70
2021/11/25 04:10:09;;;;;;;9.45;4.95;;;8.70;91.50;;;;;;5070196;28;20043;-69
2021/11/25 04:12:35;;;;;;;8.30;4.22;;;8.70;91.40;;;;;;5069236;28;20673;-70
2021/11/25 04:15:01;;;;;;;6.82;4.20;;;8.70;91.50;;;;;;5069792;28;20104;-70
2021/11/25 04:17:27;;;;;;;8.82;4.65;;;8.70;91.40;;;;;;5069282;28;20330;-70
2021/11/25 04:19:52;;;;;;;9.18;4.03;;;8.70;91.30;;;;;;5070169;28;20098;-70
2021/11/25 04:22:21;;;;;;;9.55;4.80;;;8.80;91.40;;;;;;5070004;28;20094;-70
2021/11/25 04:24:51;;;;;;;7.20;4.35;;;8.70;91.30;;;;;;5069878;28;20186;-70
2021/11/25 04:27:17;;;;;;;6.45;4.00;;;8.80;91.20;;;;;;5070029;28;20086;-69
2021/11/25 04:29:48;;;;;;;6.85;4.22;;;8.70;90.80;;;;;;5070118;28;20370;-70
2021/11/25 04:37:43;;;;;;;7.65;4.15;;;8.70;90.60;;;;;;5072011;28;20097;-69
2021/11/25 04:40:10;;;;;;;9.40;5.15;;;8.70;90.50;;;;;;5073760;28;20044;-71
2021/11/25 04:42:36;;;;;;;9.70;5.23;;;8.70;90.80;;;;;;5073729;28;20095;-70
2021/11/25 04:45:03;;;;;;;7.43;4.50;;;8.70;90.40;;;;;;5073692;28;20454;-71
2021/11/25 04:47:29;;;;;;;9.52;4.82;;;8.70;90.50;;;;;;5073953;28;20012;-70
2021/11/25 04:49:54;;;;;;;9.30;4.68;;;8.70;90.30;;;;;;5073552;28;20350;-70
2021/11/25 04:52:20;;;;;;;7.45;4.72;;;8.70;90.50;;;;;;5073388;28;20033;-71
2021/11/25 04:54:46;;;;;;;10.73;5.43;;;8.80;90.60;;;;;;5073459;28;20048;-70
2021/11/25 04:57:11;;;;;;;10.93;4.93;;;8.80;90.50;;;;;;5073413;28;20028;-69
2021/11/25 04:59:37;;;;;;;12.52;4.45;;;8.80;90.40;;;;;;5073648;28;20037;-71
2021/11/25 05:02:03;;;;;;;11.68;4.55;;;8.80;90.40;;;;;;5073412;28;20032;-70
2021/11/25 05:04:29;;;;;;;14.70;5.18;;;8.80;90.50;;;;;;5073165;28;20029;-69
2021/11/25 05:06:55;;;;;;;14.10;5.40;;;8.70;90.40;;;;;;5073244;28;20041;-70
2021/11/25 05:09:20;;;;;;;11.55;4.72;;;8.60;90.50;;;;;;5073596;28;20029;-70
2021/11/25 05:11:46;;;;;;;10.43;4.72;;;8.60;90.50;;;;;;5072706;28;20453;-69
2021/11/25 05:14:12;;;;;;;9.30;4.70;;;8.70;90.70;;;;;;5073092;28;20032;-70
2021/11/25 05:16:38;;;;;;;8.52;4.55;;;8.60;90.70;;;;;;5072922;28;20021;-70
2021/11/25 05:19:03;;;;;;;10.70;4.88;;;8.60;90.70;;;;;;5072848;28;20029;-70
2021/11/25 05:21:29;;;;;;;9.05;5.20;;;8.60;90.60;;;;;;5072715;28;20054;-70
2021/11/25 05:23:55;;;;;;;10.18;5.57;;;8.60;90.70;;;;;;5072919;28;20028;-70
2021/11/25 05:26:20;;;;;;;9.05;5.35;;;8.60;90.50;;;;;;5073465;28;20039;-69
2021/11/25 05:28:46;;;;;;;10.45;5.57;;;8.60;90.50;;;;;;5072751;28;20051;-70
2021/11/25 05:31:12;;;;;;;11.38;5.65;;;8.70;90.60;;;;;;5072521;28;20041;-69
2021/11/25 05:33:38;;;;;;;13.73;6.07;;;8.60;90.40;;;;;;5072730;28;20036;-70
2021/11/25 05:36:03;;;;;;;11.23;6.07;;;8.70;90.60;;;;;;5071458;28;20047;-70
2021/11/25 05:38:29;;;;;;;11.05;5.40;;;8.70;90.50;;;;;;5072986;28;20032;-70
2021/11/25 05:40:55;;;;;;;8.93;5.70;;;8.70;90.10;;;;;;5072597;28;20033;-70
2021/11/25 05:43:21;;;;;;;16.27;6.00;;;8.70;90.00;;;;;;5072585;28;20033;-68
2021/11/25 05:45:46;;;;;;;11.73;5.45;;;8.70;90.40;;;;;;5072612;28;20051;-69
2021/11/25 05:48:12;;;;;;;9.95;5.72;;;8.70;90.10;;;;;;5071735;28;20033;-70
2021/11/25 05:50:38;;;;;;;10.10;5.75;;;8.80;90.20;;;;;;5072591;28;20028;-70
2021/11/25 05:53:04;;;;;;;19.70;9.40;;;8.70;90.00;;;;;;5071047;28;20473;-70
2021/11/25 05:55:30;;;;;;;8.48;5.70;;;8.70;90.10;;;;;;5072136;28;20039;-70
2021/11/25 05:57:57;;;;;;;12.40;5.60;;;8.70;90.10;;;;;;5072085;28;20036;-69
2021/11/25 06:00:23;;;;;;;9.80;5.47;;;8.80;90.00;;;;;;5072051;28;20457;-70
2021/11/25 06:02:49;;;;;;;14.00;5.63;;;8.70;90.00;;;;;;5072630;28;20443;-70
2021/11/25 06:05:19;;;;;;;10.65;5.55;;;8.80;89.90;;;;;;5072248;28;20532;-70
2021/11/25 06:07:46;;;;;;;8.88;5.43;;;8.80;89.80;;;;;;5072049;28;20452;-70
2021/11/25 06:10:14;;;;;;;10.63;6.00;;;8.80;89.60;;;;;;5071738;28;20462;-69
2021/11/25 06:12:39;;;;;;;12.20;6.60;;;8.80;89.40;;;;;;5072140;28;20132;-70
2021/11/25 06:15:06;;;;;;;13.98;7.45;;;8.80;88.90;;;;;;5071786;28;20144;-71
2021/11/25 06:17:31;;;;;;;10.82;6.47;;;8.80;89.00;;;;;;5072386;28;20032;-71
2021/11/25 06:19:57;;;;;;;19.25;7.72;;;8.80;88.60;;;;;;5071611;28;20106;-69
2021/11/25 06:22:24;;;;;;;14.25;6.45;;;8.80;88.40;;;;;;5072008;28;20036;-70
2021/11/25 06:24:50;;;;;;;20.45;6.95;;;8.80;88.40;;;;;;5071482;28;20146;-71
2021/11/25 06:27:17;;;;;;;19.45;6.65;;;8.80;88.80;;;;;;5071378;28;20263;-70
2021/11/25 06:29:43;;;;;;;13.50;6.35;;;8.80;88.40;;;;;;5071955;28;20029;-70
2021/11/25 06:32:09;;;;;;;15.52;7.30;;;8.80;87.90;;;;;;5071179;28;20059;-70
2021/11/25 06:34:35;;;;;;;13.40;7.13;;;8.70;88.20;;;;;;5071246;28;20024;-70
2021/11/25 06:37:01;;;;;;;13.40;7.18;;;8.70;87.90;;;;;;5071524;28;20115;-69
2021/11/25 06:39:26;;;;;;;12.45;6.18;;;8.50;88.30;;;;;;5055847;28;20029;-70
2021/11/25 06:41:52;;;;;;;12.82;6.90;;;8.60;88.60;;;;;;5051186;28;20040;-70
2021/11/25 06:44:17;;;;;;;10.60;6.15;;;8.60;88.30;;;;;;5051476;28;20025;-70
2021/11/25 06:46:43;;;;;;;13.57;6.57;;;8.70;88.50;;;;;;5050961;28;20040;-70
2021/11/25 06:49:09;;;;;;;15.23;6.68;;;8.70;88.40;;;;;;5050980;28;20033;-70
2021/11/25 06:51:35;;;;;;;11.75;6.68;;;8.80;88.90;;;;;;5050806;28;20075;-69
2021/11/25 06:54:00;;;;;;;14.57;7.60;;;8.80;88.70;;;;;;5051489;28;20017;-70
2021/11/25 06:56:26;;;;;;;12.50;6.97;;;8.80;88.80;;;;;;5051418;28;20343;-70
2021/11/25 06:58:54;;;;;;;19.02;7.15;;;8.70;88.60;;;;;;5049737;28;20032;-69
2021/11/25 07:01:20;;;;;;;12.90;6.93;;;8.70;88.80;;;;;;5050544;28;20033;-70
2021/11/25 07:03:46;;;;;;;13.90;6.93;;;8.70;88.30;;;;;;5050751;28;20033;-70
2021/11/25 07:06:11;;;;;;;18.75;7.20;;;8.70;88.80;;;;;;5050822;28;20110;-72
2021/11/25 07:08:37;;;;;;;15.13;7.15;;;8.70;88.90;;;;;;5051219;28;20427;-75
2021/11/25 07:11:03;;;;;;;13.38;7.00;;;8.70;88.90;;;;;;5051362;28;20102;-76
2021/11/25 07:13:29;;;;;;;18.90;8.13;;;8.70;89.10;;;;;;5050478;28;20029;-76
2021/11/25 07:15:55;;;;;;;14.82;7.97;;;8.60;89.10;;;;;;5049436;28;20331;-73
2021/11/25 07:18:21;;;;;;;14.30;8.07;;;8.60;89.00;;;;;;5049489;28;20112;-77
2021/11/25 07:20:47;;;;;;;14.55;7.70;;;8.60;89.40;;;;;;5051331;28;20160;-75
2021/11/25 07:23:13;;;;;;;12.60;7.97;;;8.50;89.20;;;;;;5050651;28;20120;-74
2021/11/25 07:25:39;;;;;;;14.60;8.65;;;8.50;89.20;;;;;;5050781;28;20034;-74
2021/11/25 07:28:05;;;;;;;16.63;7.55;;;8.40;89.80;;;;;;5050431;28;20044;-76
2021/11/25 07:30:30;;;;;;;18.65;9.13;;;8.40;90.00;;;;;;5050060;28;20451;-78
2021/11/25 07:32:56;;;;;;;20.63;9.68;;;8.40;90.00;;;;;;5050332;28;20021;-75
2021/11/25 07:35:23;;;;;;;17.42;8.82;;;8.50;90.00;;;;;;5050916;28;20024;-75
2021/11/25 07:37:52;;;;;;;16.98;9.10;;;8.50;90.10;;;;;;5050043;28;20064;-77
2021/11/25 07:40:19;;;;;;;17.25;9.38;;;8.50;90.00;;;;;;5050267;28;20029;-77
2021/11/25 07:42:45;;;;;;;20.42;10.00;;;8.50;90.10;;;;;;5050265;28;20036;-74
2021/11/25 07:45:11;;;;;;;15.65;9.48;;;8.50;90.10;;;;;;5049996;28;20033;-76
2021/11/25 07:47:37;;;;;;;19.85;10.13;;;8.40;90.20;;;;;;5050521;28;20028;-76
2021/11/25 07:50:07;;;;;;;18.80;10.75;;;8.40;90.30;;;;;;5049121;28;20052;-76
2021/11/25 07:52:33;;;;;;;22.38;10.45;;;8.40;90.40;;;;;;5048629;28;20363;-75
2021/11/25 07:54:58;;;;;;;21.10;11.30;;;8.50;90.40;;;;;;5049879;28;20025;-70
2021/11/25 07:57:26;;;;;;;19.30;11.13;;;8.40;90.30;;;;;;5049912;28;20059;-77
2021/11/25 07:59:52;;;;;;;26.77;11.23;;;8.30;90.50;;;;;;5049899;28;20105;-77
2021/11/25 08:02:19;;;;;;;21.15;12.35;;;8.40;90.80;;;;;;5050311;28;20104;-75
2021/11/25 08:04:45;;;;;;;23.33;11.50;;;8.30;90.80;;;;;;5049906;28;20111;-75
2021/11/25 08:07:11;;;;;;;21.83;12.38;;;8.50;90.80;;;;;;5050011;28;20362;-77
2021/11/25 08:09:37;;;;;;;29.42;12.55;;;8.40;90.60;;;;;;5049793;28;20422;-76
2021/11/25 08:12:03;;;;;;;26.05;12.43;;;8.40;90.90;;;;;;5051044;28;20025;-76
2021/11/25 08:14:28;;;;;;;23.77;11.85;;;8.40;90.80;;;;;;5054544;28;20021;-75
2021/11/25 08:16:58;;;;;;;24.52;12.05;;;8.50;90.90;;;;;;5054286;28;20043;-76
2021/11/25 08:19:24;;;;;;;21.40;11.18;;;8.60;90.80;;;;;;5053923;28;20086;-76
2021/11/25 08:21:50;;;;;;;23.85;13.63;;;8.60;90.70;;;;;;5053604;28;20037;-71
2021/11/25 08:24:15;;;;;;;24.63;12.70;;;8.60;90.50;;;;;;5053742;28;20037;-71
2021/11/25 08:26:41;;;;;;;29.17;14.38;;;8.70;90.60;;;;;;5054337;28;20129;-76
2021/11/25 08:29:07;;;;;;;32.10;14.98;;;8.40;90.40;;;;;;5052728;28;20037;-78
2021/11/25 08:31:33;;;;;;;28.25;14.32;;;8.50;90.70;;;;;;5053628;28;20502;-75
2021/11/25 08:33:58;;;;;;;26.58;12.63;;;8.60;90.60;;;;;;5053722;28;20045;-76
2021/11/25 08:36:24;;;;;;;28.65;14.30;;;8.60;90.50;;;;;;5053586;28;20063;-75
2021/11/25 08:38:50;;;;;;;29.25;14.90;;;8.60;90.40;;;;;;5053973;28;20096;-75
2021/11/25 08:41:16;;;;;;;22.85;13.30;;;8.60;90.40;;;;;;5053620;28;20045;-73
2021/11/25 08:43:42;;;;;;;25.60;13.98;;;8.50;90.20;;;;;;5053413;28;20116;-75
2021/11/25 08:46:08;;;;;;;26.98;13.23;;;8.50;90.40;;;;;;5052215;28;20120;-73
2021/11/25 08:48:33;;;;;;;24.10;13.45;;;8.60;90.40;;;;;;5053608;28;20028;-73
2021/11/25 08:50:59;;;;;;;25.88;13.13;;;8.70;90.60;;;;;;5053169;28;20063;-78
2021/11/25 08:53:26;;;;;;;21.50;12.57;;;8.70;90.20;;;;;;5053590;28;20029;-77
2021/11/25 08:55:51;;;;;;;27.48;14.13;;;8.70;90.10;;;;;;5052967;28;20107;-77
2021/11/25 08:58:17;;;;;;;29.50;14.40;;;8.60;90.20;;;;;;5051586;28;20362;-78
2021/11/25 09:00:43;;;;;;;26.77;13.13;;;8.70;90.20;;;;;;5053128;28;20039;-76
2021/11/25 09:03:09;;;;;;;22.38;12.73;;;8.80;90.00;;;;;;5051903;28;20049;-76
2021/11/25 09:05:34;;;;;;;24.98;13.40;;;8.90;89.70;;;;;;5053339;28;20434;-76
2021/11/25 09:08:01;;;;;;;23.83;12.52;;;8.90;89.80;;;;;;5053211;28;20127;-76
2021/11/25 09:10:27;;;;;;;21.83;12.30;;;8.90;89.80;;;;;;5053243;28;20494;-75
2021/11/25 09:12:53;;;;;;;23.98;12.93;;;8.90;89.20;;;;;;5052951;28;20053;-76
2021/11/25 09:15:20;;;;;;;24.85;12.57;;;8.70;89.30;;;;;;5053130;28;20454;-73
2021/11/25 09:17:45;;;;;;;23.25;12.52;;;8.90;89.60;;;;;;5053135;28;20021;-73
2021/11/25 09:20:12;;;;;;;21.42;12.30;;;8.90;89.10;;;;;;5051454;28;20052;-72
2021/11/25 09:22:38;;;;;;;25.73;13.10;;;8.70;89.20;;;;;;5051233;28;20112;-72
2021/11/25 09:25:05;;;;;;;20.80;13.13;;;8.70;89.70;;;;;;5052656;28;20470;-74
2021/11/25 09:27:31;;;;;;;19.85;11.93;;;8.70;89.60;;;;;;5052684;28;20105;-74
2021/11/25 09:29:57;;;;;;;21.88;12.18;;;8.90;89.60;;;;;;5052376;28;20418;-75
2021/11/25 09:32:22;;;;;;;23.20;13.02;;;9.10;89.70;;;;;;5052972;28;20514;-74
2021/11/25 09:34:48;;;;;;;18.42;11.70;;;9.00;89.00;;;;;;5052480;28;20029;-74
2021/11/25 09:37:14;;;;;;;19.65;11.65;;;9.20;88.30;;;;;;5052567;28;20384;-77
2021/11/25 09:39:40;;;;;;;19.35;11.35;;;9.20;87.90;;;;;;5052422;28;20025;-78
2021/11/25 09:42:06;;;;;;;18.67;11.50;;;9.30;88.20;;;;;;5052568;28;20070;-74
2021/11/25 09:44:32;;;;;;;18.05;10.98;;;9.20;87.50;;;;;;5053105;28;20388;-76
2021/11/25 09:46:58;;;;;;;22.17;10.27;;;9.00;87.40;;;;;;5052294;28;20037;-77
2021/11/25 09:49:29;;;;;;;18.23;10.93;;;8.90;87.90;;;;;;5051068;28;20029;-74
2021/11/25 09:51:56;;;;;;;19.17;11.25;;;9.00;87.80;;;;;;5051170;28;20120;-76
2021/11/25 09:54:22;;;;;;;22.85;11.05;;;9.20;88.10;;;;;;5052360;28;20032;-76
2021/11/25 09:56:49;;;;;;;19.45;11.00;;;9.20;87.40;;;;;;5052362;28;20021;-76
2021/11/25 09:59:16;;;;;;;27.63;14.07;;;9.40;87.30;;;;;;5052311;28;20037;-77
2021/11/25 10:01:42;;;;;;;20.98;12.50;;;9.10;87.40;;;;;;5052130;28;20029;-76
2021/11/25 10:04:08;;;;;;;22.48;12.38;;;8.80;87.80;;;;;;5052206;28;20044;-76
2021/11/25 10:06:50;;;;;;;20.88;11.63;;;8.90;87.90;;;;;;5050780;28;20029;-79
2021/11/25 10:09:15;;;;;;;21.75;11.98;;;8.90;87.90;;;;;;5052448;28;20025;-77
2021/11/25 10:11:41;;;;;;;25.40;12.30;;;8.90;87.90;;;;;;5052374;28;20021;-75
2021/11/25 10:14:14;;;;;;;23.20;12.25;;;9.00;88.10;;;;;;5051979;28;20044;-77
2021/11/25 10:16:46;;;;;;;25.30;14.30;;;8.90;87.70;;;;;;5050720;28;20032;-76
2021/11/25 10:19:23;;;;;;;26.08;12.52;;;9.10;88.30;;;;;;5051838;28;20116;-77
2021/11/25 10:21:52;;;;;;;20.27;11.10;;;9.20;87.70;;;;;;5051819;28;20025;-77
2021/11/25 10:24:31;;;;;;;17.85;10.75;;;9.20;87.40;;;;;;5051488;28;20032;-76
2021/11/25 10:26:57;;;;;;;20.10;12.32;;;9.20;87.70;;;;;;5051582;28;20087;-74
2021/11/25 10:29:22;;;;;;;19.75;11.90;;;9.20;87.50;;;;;;5052122;28;20451;-73
2021/11/25 10:31:54;;;;;;;17.90;10.15;;;9.20;87.50;;;;;;5051308;28;20168;-73
2021/11/25 10:34:22;;;;;;;19.05;10.88;;;9.10;87.20;;;;;;5051196;28;20057;-78
2021/11/25 10:37:05;;;;;;;23.52;11.23;;;9.20;87.50;;;;;;5051470;28;20037;-77
2021/11/25 10:42:35;;;;;;;19.50;11.15;;;9.20;87.60;;;;;;5051493;28;20112;-74
2021/11/25 10:45:09;;;;;;;17.67;11.13;;;9.20;87.20;;;;;;5051146;28;20016;-74
2021/11/25 10:47:34;;;;;;;22.27;11.43;;;9.00;87.30;;;;;;5050502;28;20122;-73
2021/11/25 10:50:06;;;;;;;20.88;11.40;;;9.20;87.50;;;;;;5051353;28;20497;-73
2021/11/25 10:52:37;;;;;;;22.33;10.80;;;9.20;87.00;;;;;;5051024;28;20036;-75
2021/11/25 10:55:07;;;;;;;20.02;11.68;;;9.30;87.40;;;;;;5051242;28;20029;-73
2021/11/25 10:57:48;;;;;;;19.77;11.48;;;9.20;86.90;;;;;;5051028;28;20491;-74
2021/11/25 11:00:36;;;;;;;19.33;11.02;;;9.20;87.30;;;;;;5050690;28;20447;-76
2021/11/25 11:03:07;;;;;;;18.45;10.93;;;9.10;87.30;;;;;;5050973;28;20102;-75
2021/11/25 11:05:58;;;;;;;23.40;13.10;;;9.00;87.30;;;;;;5051280;28;20100;-74
2021/11/25 11:08:29;;;;;;;20.08;12.27;;;9.20;87.50;;;;;;5050909;28;20047;-72
2021/11/25 11:11:02;;;;;;;20.10;12.13;;;9.20;87.20;;;;;;5050620;28;20037;-73
2021/11/25 11:18:53;;;;;;;22.73;11.38;;;9.10;87.60;;;;;;5050661;28;20036;-75
2021/11/25 11:21:34;;;;;;;19.55;11.75;;;9.20;88.00;;;;;;5049427;28;20029;-77
2021/11/25 11:24:05;;;;;;;21.70;12.88;;;9.30;88.00;;;;;;5050689;28;20071;-75
2021/11/25 11:26:31;;;;;;;24.42;12.93;;;9.20;87.80;;;;;;5050949;28;20024;-75
2021/11/25 11:28:58;;;;;;;20.15;12.10;;;9.20;88.20;;;;;;5049398;28;20033;-75
2021/11/25 11:31:24;;;;;;;22.58;12.27;;;9.00;87.70;;;;;;5050147;28;20461;-74
2021/11/25 11:33:50;;;;;;;23.70;14.45;;;9.00;88.20;;;;;;5050388;28;20043;-73
2021/11/25 11:36:20;;;;;;;31.65;15.02;;;8.90;88.30;;;;;;5050428;28;20418;-74
2021/11/25 11:38:47;;;;;;;31.02;14.10;;;9.00;88.30;;;;;;5049769;28;20044;-73
2021/11/25 11:41:14;;;;;;;25.17;13.38;;;9.20;88.20;;;;;;5050526;28;20532;-71
2021/11/25 11:43:40;;;;;;;21.55;13.02;;;9.10;88.20;;;;;;5050217;28;20546;-75
2021/11/25 11:46:06;;;;;;;23.23;13.68;;;9.30;88.40;;;;;;5049606;28;20026;-73
2021/11/25 11:48:32;;;;;;;24.15;13.73;;;9.30;88.00;;;;;;5049857;28;20029;-72
2021/11/25 11:50:59;;;;;;;23.00;12.55;;;9.20;87.90;;;;;;5048819;28;20401;-72
2021/11/25 11:53:37;;;;;;;25.17;13.35;;;9.10;88.00;;;;;;5050315;28;20490;-72
2021/11/25 11:56:04;;;;;;;23.05;13.88;;;9.20;88.10;;;;;;5049065;28;20250;-73
2021/11/25 11:58:32;;;;;;;25.13;12.77;;;9.40;88.30;;;;;;5050011;28;20037;-75
2021/11/25 12:01:06;;;;;;;25.48;14.27;;;9.50;87.90;;;;;;5050025;28;20274;-73
2021/11/25 12:03:41;;;;;;;21.83;12.43;;;9.40;87.30;;;;;;5049949;28;20099;-75
2021/11/25 12:06:08;;;;;;;26.10;13.02;;;9.50;87.30;;;;;;5049898;28;20443;-73
2021/11/25 12:08:37;;;;;;;21.80;12.50;;;9.50;87.70;;;;;;5049369;28;20040;-73
2021/11/25 12:11:04;;;;;;;24.67;12.85;;;9.40;87.30;;;;;;5049394;28;20040;-73
2021/11/25 12:13:55;;;;;;;40.95;21.35;;;9.50;87.50;;;;;;5050185;28;20044;-73
2021/11/25 12:16:20;;;;;;;23.02;14.20;;;9.50;87.30;;;;;;5050074;28;20112;-72
2021/11/25 12:18:52;;;;;;;23.15;13.63;;;9.40;87.30;;;;;;5049823;28;20116;-73
2021/11/25 12:21:43;;;;;;;20.27;12.32;;;9.50;87.30;;;;;;5049855;28;20119;-73
2021/11/25 12:24:20;;;;;;;22.30;13.38;;;9.40;87.50;;;;;;5049859;28;20047;-72
2021/11/25 12:26:58;;;;;;;24.02;12.73;;;9.40;87.30;;;;;;5050188;28;20482;-72
2021/11/25 12:29:43;;;;;;;21.10;12.93;;;9.50;87.20;;;;;;5050349;28;20128;-73
2021/11/25 12:32:26;;;;;;;23.20;13.05;;;9.20;87.20;;;;;;5048624;28;20045;-73
2021/11/25 12:34:52;;;;;;;25.92;13.82;;;9.40;87.70;;;;;;5049877;28;20404;-74
2021/11/25 12:37:46;;;;;;;22.95;13.07;;;9.30;87.40;;;;;;5048630;28;20029;-74
2021/11/25 12:40:18;;;;;;;24.02;13.40;;;9.00;87.80;;;;;;5049904;28;20049;-74
2021/11/25 12:42:50;;;;;;;22.95;13.07;;;9.00;88.10;;;;;;5049744;28;20115;-72
2021/11/25 12:45:25;;;;;;;25.92;14.13;;;9.10;88.40;;;;;;5049852;28;20176;-76
2021/11/25 12:48:05;;;;;;;26.73;14.45;;;9.20;88.50;;;;;;5048679;28;20025;-73
2021/11/25 12:50:36;;;;;;;28.48;15.45;;;9.10;88.40;;;;;;5048868;28;20021;-73
2021/11/25 12:53:31;;;;;;;27.65;13.73;;;9.20;88.60;;;;;;5049306;28;20033;-75
2021/11/25 12:56:05;;;;;;;29.48;14.75;;;9.20;88.20;;;;;;5048616;28;20037;-74
2021/11/25 12:58:43;;;;;;;26.20;15.77;;;9.10;88.70;;;;;;5051402;28;20153;-75
2021/11/25 13:01:19;;;;;;;25.83;14.60;;;9.10;89.10;;;;;;5053484;28;20417;-74
2021/11/25 13:03:45;;;;;;;27.48;14.18;;;9.10;89.00;;;;;;5052662;28;20039;-75